createdAt,value
2019-01-13T00:01:59.350Z,2.63
2019-01-13T00:07:03.104Z,3.00
2019-01-13T00:12:07.127Z,2.80
2019-01-13T00:17:10.856Z,2.80
2019-01-13T00:22:14.596Z,2.50
2019-01-13T00:27:18.408Z,2.10
2019-01-13T00:32:22.169Z,2.10
2019-01-13T00:37:25.923Z,1.83
2019-01-13T00:42:29.605Z,1.97
2019-01-13T00:47:33.336Z,1.87
2019-01-13T00:52:37.053Z,2.00
2019-01-13T00:57:40.903Z,1.73
2019-01-13T01:02:44.883Z,1.63
2019-01-13T01:07:50.366Z,1.50
2019-01-13T01:12:54.056Z,1.60
2019-01-13T01:17:57.760Z,1.83
2019-01-13T01:23:01.559Z,1.60
2019-01-13T01:28:05.445Z,1.83
2019-01-13T01:33:09.410Z,2.03
2019-01-13T01:38:13.394Z,2.03
2019-01-13T01:43:17.112Z,1.97
2019-01-13T01:48:20.838Z,2.40
2019-01-13T01:53:24.519Z,1.83
2019-01-13T01:58:28.279Z,2.50
2019-01-13T02:03:31.969Z,2.30
2019-01-13T02:08:35.723Z,2.47
2019-01-13T02:13:39.421Z,1.90
2019-01-13T02:18:43.116Z,2.50
2019-01-13T02:23:46.787Z,2.43
2019-01-13T02:28:50.461Z,2.20
2019-01-13T02:33:54.248Z,2.20
2019-01-13T02:38:58.357Z,2.13
2019-01-13T02:44:02.060Z,2.13
2019-01-13T02:49:05.775Z,2.10
2019-01-13T02:54:09.485Z,1.97
2019-01-13T02:59:13.571Z,1.47
2019-01-13T03:04:17.270Z,1.73
2019-01-13T03:09:21.220Z,1.70
2019-01-13T03:14:25.259Z,1.77
2019-01-13T03:19:28.971Z,1.87
2019-01-13T03:24:32.965Z,1.87
2019-01-13T03:29:36.695Z,1.90
2019-01-13T03:34:40.756Z,1.60
2019-01-13T03:39:44.448Z,1.90
2019-01-13T03:44:48.132Z,1.60
2019-01-13T03:49:51.844Z,2.10
2019-01-13T03:54:55.564Z,2.20
2019-01-13T03:59:59.253Z,1.87
2019-01-13T04:05:02.946Z,2.03
2019-01-13T04:10:07.832Z,1.80
2019-01-13T04:15:47.446Z,1.63
2019-01-13T04:20:51.892Z,1.93
2019-01-13T04:25:55.583Z,1.80
2019-01-13T04:30:59.354Z,1.70
2019-01-13T04:36:03.045Z,2.20
2019-01-13T04:41:06.812Z,1.70
2019-01-13T04:46:10.568Z,1.43
2019-01-13T04:51:14.707Z,1.40
2019-01-13T04:56:18.951Z,1.20
2019-01-13T05:01:22.699Z,1.60
2019-01-13T05:06:26.389Z,1.30
2019-01-13T05:11:30.336Z,1.43
2019-01-13T05:16:34.071Z,1.23
2019-01-13T05:21:38.073Z,1.23
2019-01-13T05:26:42.034Z,1.40
2019-01-13T05:31:45.726Z,1.17
2019-01-13T05:36:49.441Z,1.07
2019-01-13T05:41:52.559Z,1.30
2019-01-13T05:46:56.272Z,1.10
2019-01-13T05:51:59.962Z,1.20
2019-01-13T05:57:03.671Z,1.40
2019-01-13T06:02:07.391Z,1.40
2019-01-13T06:07:11.068Z,1.40
2019-01-13T06:12:14.745Z,1.40
2019-01-13T06:17:18.420Z,1.33
2019-01-13T06:22:22.145Z,1.20
2019-01-13T06:27:25.808Z,1.27
2019-01-13T06:32:29.472Z,1.17
2019-01-13T06:37:33.147Z,1.63
2019-01-13T06:42:36.851Z,1.50
2019-01-13T06:47:40.512Z,1.30
2019-01-13T06:52:44.867Z,1.43
2019-01-13T06:57:48.633Z,1.37
2019-01-13T07:02:52.627Z,1.70
2019-01-13T07:07:56.947Z,1.40
2019-01-13T07:13:00.917Z,1.40
2019-01-13T07:18:04.883Z,1.40
2019-01-13T07:23:08.820Z,1.40
2019-01-13T07:28:12.492Z,1.47
2019-01-13T07:33:16.512Z,1.27
2019-01-13T07:38:20.477Z,1.70
2019-01-13T07:43:24.779Z,1.40
2019-01-13T07:48:28.801Z,1.63
2019-01-13T07:53:32.736Z,1.40
2019-01-13T07:58:36.825Z,1.70
2019-01-13T08:03:40.569Z,1.70
2019-01-13T08:08:44.256Z,1.50
2019-01-13T08:13:47.972Z,1.43
2019-01-13T08:18:51.974Z,1.90
2019-01-13T08:23:55.631Z,1.40
2019-01-13T08:28:59.572Z,1.60
2019-01-13T08:34:03.332Z,1.30
2019-01-13T08:39:08.125Z,1.47
2019-01-13T08:44:12.069Z,1.30
2019-01-13T08:49:15.764Z,1.00
2019-01-13T08:54:19.457Z,1.60
2019-01-13T08:59:23.455Z,1.83
2019-01-13T09:04:27.456Z,2.13
2019-01-13T09:09:31.216Z,1.10
2019-01-13T09:14:35.032Z,1.33
2019-01-13T09:19:38.869Z,1.73
2019-01-13T09:24:42.545Z,1.37
2019-01-13T09:29:46.564Z,1.50
2019-01-13T09:34:50.312Z,1.50
2019-01-13T09:39:53.997Z,1.27
2019-01-13T09:44:57.827Z,1.30
2019-01-13T09:50:01.951Z,1.80
2019-01-13T09:55:06.854Z,1.50
2019-01-13T10:00:20.232Z,1.83
2019-01-13T10:05:24.011Z,1.40
2019-01-13T10:10:27.764Z,1.60
2019-01-13T10:15:31.525Z,1.53
2019-01-13T10:20:36.303Z,1.80
2019-01-13T10:25:40.325Z,2.00
2019-01-13T10:30:44.265Z,2.27
2019-01-13T10:35:47.973Z,2.03
2019-01-13T10:40:51.644Z,2.10
2019-01-13T10:45:55.334Z,1.90
2019-01-13T10:50:59.024Z,2.17
2019-01-13T10:56:02.706Z,2.03
2019-01-13T11:01:06.785Z,2.30
2019-01-13T11:06:11.023Z,2.10
2019-01-13T11:11:14.691Z,1.80
2019-01-13T11:16:18.484Z,1.97
2019-01-13T11:21:22.167Z,2.80
2019-01-13T11:26:25.876Z,2.00
2019-01-13T11:31:29.807Z,1.60
2019-01-13T11:36:33.778Z,1.80
2019-01-13T11:41:37.437Z,1.47
2019-01-13T11:46:43.109Z,1.40
2019-01-13T11:51:46.859Z,1.30
2019-01-13T11:56:50.547Z,1.40
2019-01-13T12:01:54.292Z,1.03
2019-01-13T12:06:58.020Z,1.20
2019-01-13T12:12:01.719Z,0.90
2019-01-13T12:17:05.704Z,1.07
2019-01-13T12:22:09.422Z,1.37
2019-01-13T12:27:13.786Z,1.10
2019-01-13T12:32:17.820Z,1.10
2019-01-13T12:37:22.088Z,1.00
2019-01-13T12:42:27.401Z,1.03
2019-01-13T12:47:32.078Z,1.03
2019-01-13T12:52:36.888Z,0.80
2019-01-13T12:57:40.794Z,0.97
2019-01-13T13:02:45.283Z,0.73
2019-01-13T13:07:49.554Z,0.80
2019-01-13T13:12:54.894Z,0.60
2019-01-13T13:18:01.638Z,0.80
2019-01-13T13:23:05.927Z,0.50
2019-01-13T13:28:09.751Z,0.67
2019-01-13T13:33:13.489Z,0.50
2019-01-13T13:38:17.185Z,1.10
2019-01-13T13:43:30.939Z,0.63
2019-01-13T13:48:34.896Z,0.80
2019-01-13T13:53:38.585Z,0.70
2019-01-13T13:58:42.831Z,0.73
2019-01-13T14:03:46.526Z,0.50
2019-01-13T14:08:50.578Z,0.60
2019-01-13T14:13:54.360Z,0.40
2019-01-13T14:18:58.315Z,0.60
2019-01-13T14:24:02.021Z,0.60
2019-01-13T14:29:06.720Z,0.50
2019-01-13T14:34:10.925Z,0.50
2019-01-13T14:39:14.605Z,0.50
2019-01-13T14:44:18.608Z,0.50
2019-01-13T14:49:22.591Z,0.60
2019-01-13T14:54:26.298Z,0.60
2019-01-13T14:59:30.009Z,0.53
2019-01-13T15:04:33.817Z,0.70
2019-01-13T15:09:37.507Z,0.63
2019-01-13T15:14:41.423Z,0.50
2019-01-13T15:19:45.640Z,0.63
2019-01-13T15:24:49.702Z,0.50
2019-01-13T15:29:53.936Z,0.90
2019-01-13T15:34:57.601Z,0.70
2019-01-13T15:40:01.301Z,0.50
2019-01-13T15:45:06.137Z,0.77
2019-01-13T15:50:13.309Z,0.60
2019-01-13T15:55:17.449Z,0.97
2019-01-13T16:00:23.525Z,0.97
2019-01-13T16:05:27.577Z,1.00
2019-01-13T16:10:31.354Z,0.77
2019-01-13T16:15:35.081Z,0.80
2019-01-13T16:20:42.168Z,0.80
2019-01-13T16:25:45.834Z,0.90
2019-01-13T16:30:49.510Z,0.90
2019-01-13T16:35:53.512Z,1.00
2019-01-13T16:40:57.308Z,0.80
2019-01-13T16:46:01.553Z,0.90
2019-01-13T16:51:05.303Z,0.80
2019-01-13T16:56:09.389Z,0.90
2019-01-13T17:01:13.154Z,1.00
2019-01-13T17:06:17.207Z,0.90
2019-01-13T17:11:21.389Z,1.00
2019-01-13T17:16:25.096Z,0.87
2019-01-13T17:21:29.005Z,0.90
2019-01-13T17:26:32.787Z,0.80
2019-01-13T17:31:36.484Z,1.00
2019-01-13T17:36:40.192Z,0.63
2019-01-13T17:41:43.942Z,0.90
2019-01-13T17:46:47.644Z,1.00
2019-01-13T17:51:51.588Z,0.90
2019-01-13T17:56:55.276Z,0.90
2019-01-13T18:01:58.962Z,1.20
2019-01-13T18:07:02.927Z,1.70
2019-01-13T18:12:06.639Z,1.57
2019-01-13T18:17:10.362Z,1.00
2019-01-13T18:22:14.338Z,0.90
2019-01-13T18:27:18.283Z,1.00
2019-01-13T18:32:22.187Z,1.00
2019-01-13T18:37:25.873Z,0.80
2019-01-13T18:42:30.903Z,1.10
2019-01-13T18:47:35.765Z,1.40
2019-01-13T18:52:42.727Z,1.10
2019-01-13T18:57:46.718Z,1.00
2019-01-13T19:02:51.818Z,1.10
2019-01-13T19:07:55.577Z,1.17
2019-01-13T19:13:04.482Z,1.20
2019-01-13T19:18:08.268Z,1.40
2019-01-13T19:23:19.239Z,1.37
2019-01-13T19:28:23.135Z,1.60
2019-01-13T19:33:27.169Z,1.50
2019-01-13T19:38:31.265Z,1.70
2019-01-13T19:43:35.079Z,1.53
2019-01-13T19:48:38.924Z,1.47
2019-01-13T19:53:42.748Z,1.20
2019-01-13T19:58:47.295Z,1.43
2019-01-13T20:03:52.260Z,1.30
2019-01-13T20:08:56.014Z,0.97
2019-01-13T20:13:59.746Z,0.50
2019-01-13T20:19:03.407Z,0.63
2019-01-13T20:24:07.272Z,0.60
2019-01-13T20:29:11.065Z,0.60
2019-01-13T20:34:14.772Z,0.80
2019-01-13T20:39:18.454Z,1.00
2019-01-13T20:44:22.181Z,1.07
2019-01-13T20:49:26.410Z,1.33
2019-01-13T20:54:30.264Z,0.67
2019-01-13T20:59:50.240Z,1.10
2019-01-13T21:04:54.769Z,1.13
2019-01-13T21:15:37.519Z,1.70
2019-01-13T21:20:42.020Z,1.00
2019-01-13T21:25:45.834Z,1.37
2019-01-13T21:30:49.593Z,1.20
2019-01-13T21:35:53.708Z,1.50
2019-01-13T21:40:57.501Z,1.40
2019-01-13T21:46:02.247Z,2.00
2019-01-13T21:51:06.285Z,1.63
2019-01-13T21:56:09.984Z,1.10
2019-01-13T22:01:13.715Z,1.77
2019-01-13T22:06:17.613Z,1.40
2019-01-13T22:11:21.639Z,1.43
2019-01-13T22:16:29.621Z,1.53
2019-01-13T22:21:43.840Z,1.40
2019-01-13T22:26:47.979Z,1.53
2019-01-13T22:31:51.666Z,1.43
2019-01-13T22:36:55.630Z,1.33
2019-01-13T22:41:59.316Z,1.40
2019-01-13T22:47:05.939Z,1.50
2019-01-13T22:53:21.935Z,1.13
2019-01-13T22:57:24.580Z,1.20
2019-01-13T23:02:28.333Z,1.03
2019-01-13T23:07:32.915Z,1.43
2019-01-13T23:12:36.668Z,1.20
2019-01-13T23:17:40.397Z,1.10
2019-01-13T23:22:44.208Z,1.33
2019-01-13T23:27:47.884Z,1.30
2019-01-13T23:32:51.556Z,1.20
2019-01-13T23:38:05.900Z,1.33
2019-01-13T23:43:09.608Z,1.30
2019-01-13T23:48:13.579Z,1.20
2019-01-13T23:53:17.364Z,1.03
2019-01-13T23:58:21.036Z,1.13
